sensor_id;sensor_type;location;lat;lon;timestamp;pressure;altitude;pressure_sealevel;temperature;humidity
64368;BME280;50692;53.314;-6.300;2023-05-17T00:01:26;102574.34;;;15.06;59.91
64368;BME280;50692;53.314;-6.300;2023-05-17T00:04:13;102575.06;;;15.10;59.70
64368;BME280;50692;53.314;-6.300;2023-05-17T00:07:00;102557.75;;;15.00;59.69
64368;BME280;50692;53.314;-6.300;2023-05-17T00:09:48;102567.50;;;15.01;59.93
64368;BME280;50692;53.314;-6.300;2023-05-17T00:12:34;102566.81;;;14.96;59.96
64368;BME280;50692;53.314;-6.300;2023-05-17T00:15:19;102570.66;;;14.88;60.30
64368;BME280;50692;53.314;-6.300;2023-05-17T00:18:11;102567.56;;;14.77;60.69
64368;BME280;50692;53.314;-6.300;2023-05-17T00:20:59;102580.25;;;14.71;60.84
64368;BME280;50692;53.314;-6.300;2023-05-17T00:23:44;102570.91;;;14.60;61.10
64368;BME280;50692;53.314;-6.300;2023-05-17T00:26:30;102552.06;;;14.43;61.07
64368;BME280;50692;53.314;-6.300;2023-05-17T00:29:18;102579.41;;;14.47;61.27
64368;BME280;50692;53.314;-6.300;2023-05-17T00:32:06;102573.41;;;14.42;61.65
64368;BME280;50692;53.314;-6.300;2023-05-17T00:34:51;102576.31;;;14.35;61.48
64368;BME280;50692;53.314;-6.300;2023-05-17T00:37:38;102573.94;;;14.28;61.37
64368;BME280;50692;53.314;-6.300;2023-05-17T00:40:24;102574.94;;;14.25;61.97
64368;BME280;50692;53.314;-6.300;2023-05-17T00:43:10;102548.28;;;14.03;62.17
64368;BME280;50692;53.314;-6.300;2023-05-17T00:45:59;102564.97;;;14.08;62.34
64368;BME280;50692;53.314;-6.300;2023-05-17T00:48:44;102583.50;;;14.10;62.77
64368;BME280;50692;53.314;-6.300;2023-05-17T00:51:30;102576.75;;;14.01;63.14
64368;BME280;50692;53.314;-6.300;2023-05-17T00:54:18;102575.16;;;13.97;63.28
64368;BME280;50692;53.314;-6.300;2023-05-17T00:57:06;102567.69;;;13.83;63.26
64368;BME280;50692;53.314;-6.300;2023-05-17T00:59:52;102537.34;;;13.65;63.63
64368;BME280;50692;53.314;-6.300;2023-05-17T01:02:40;102588.00;;;13.84;63.69
64368;BME280;50692;53.314;-6.300;2023-05-17T01:05:26;102596.91;;;13.83;63.59
64368;BME280;50692;53.314;-6.300;2023-05-17T01:08:13;102595.44;;;13.75;63.94
64368;BME280;50692;53.314;-6.300;2023-05-17T01:14:17;102601.22;;;13.62;64.17
64368;BME280;50692;53.314;-6.300;2023-05-17T01:20:27;102593.63;;;13.52;64.79
64368;BME280;50692;53.314;-6.300;2023-05-17T01:23:26;102591.44;;;13.38;65.64
64368;BME280;50692;53.314;-6.300;2023-05-17T01:29:13;102592.75;;;13.26;65.96
64368;BME280;50692;53.314;-6.300;2023-05-17T01:32:03;102579.84;;;13.14;66.01
64368;BME280;50692;53.314;-6.300;2023-05-17T01:34:49;102594.75;;;13.18;66.12
64368;BME280;50692;53.314;-6.300;2023-05-17T01:37:39;102591.56;;;13.08;66.70
64368;BME280;50692;53.314;-6.300;2023-05-17T01:40:26;102543.00;;;12.78;66.75
64368;BME280;50692;53.314;-6.300;2023-05-17T01:43:29;102581.97;;;13.04;66.70
64368;BME280;50692;53.314;-6.300;2023-05-17T01:46:28;102583.03;;;12.99;66.46
64368;BME280;50692;53.314;-6.300;2023-05-17T01:49:23;102586.19;;;13.10;66.49
64368;BME280;50692;53.314;-6.300;2023-05-17T01:55:26;102585.78;;;12.95;66.74
64368;BME280;50692;53.314;-6.300;2023-05-17T01:58:14;102559.06;;;12.73;66.79
64368;BME280;50692;53.314;-6.300;2023-05-17T02:01:01;102567.72;;;12.80;66.90
64368;BME280;50692;53.314;-6.300;2023-05-17T02:03:49;102568.66;;;12.78;66.80
64368;BME280;50692;53.314;-6.300;2023-05-17T02:06:34;102572.19;;;12.78;67.08
64368;BME280;50692;53.314;-6.300;2023-05-17T02:09:23;102580.97;;;12.80;67.29
64368;BME280;50692;53.314;-6.300;2023-05-17T02:12:10;102593.53;;;12.75;67.47
64368;BME280;50692;53.314;-6.300;2023-05-17T02:14:56;102570.03;;;12.63;67.44
64368;BME280;50692;53.314;-6.300;2023-05-17T02:17:43;102579.72;;;12.64;67.53
64368;BME280;50692;53.314;-6.300;2023-05-17T02:20:30;102599.91;;;12.69;67.68
64368;BME280;50692;53.314;-6.300;2023-05-17T02:23:17;102593.81;;;12.66;67.62
64368;BME280;50692;53.314;-6.300;2023-05-17T02:26:03;102593.75;;;12.67;67.57
64368;BME280;50692;53.314;-6.300;2023-05-17T02:28:50;102582.44;;;12.62;67.63
64368;BME280;50692;53.314;-6.300;2023-05-17T02:31:36;102599.19;;;12.64;67.62
64368;BME280;50692;53.314;-6.300;2023-05-17T02:34:22;102602.81;;;12.60;67.54
64368;BME280;50692;53.314;-6.300;2023-05-17T02:37:08;102585.38;;;12.53;67.84
64368;BME280;50692;53.314;-6.300;2023-05-17T02:39:54;102562.72;;;12.43;67.85
64368;BME280;50692;53.314;-6.300;2023-05-17T02:42:40;102528.91;;;12.21;67.77
64368;BME280;50692;53.314;-6.300;2023-05-17T02:45:27;102584.81;;;12.43;68.11
64368;BME280;50692;53.314;-6.300;2023-05-17T02:48:13;102577.09;;;12.36;68.25
64368;BME280;50692;53.314;-6.300;2023-05-17T02:51:00;102591.13;;;12.39;68.54
64368;BME280;50692;53.314;-6.300;2023-05-17T02:53:46;102590.28;;;12.37;68.60
64368;BME280;50692;53.314;-6.300;2023-05-17T02:56:31;102572.00;;;12.28;68.86
64368;BME280;50692;53.314;-6.300;2023-05-17T02:59:18;102570.44;;;12.21;69.02
64368;BME280;50692;53.314;-6.300;2023-05-17T03:02:04;102570.69;;;12.13;69.08
64368;BME280;50692;53.314;-6.300;2023-05-17T03:04:51;102578.69;;;12.12;69.54
64368;BME280;50692;53.314;-6.300;2023-05-17T03:07:37;102568.34;;;12.03;69.86
64368;BME280;50692;53.314;-6.300;2023-05-17T03:10:23;102580.59;;;12.07;70.10
64368;BME280;50692;53.314;-6.300;2023-05-17T03:13:09;102568.31;;;12.04;70.12
64368;BME280;50692;53.314;-6.300;2023-05-17T03:15:55;102578.72;;;12.10;70.05
64368;BME280;50692;53.314;-6.300;2023-05-17T03:18:42;102550.81;;;11.98;69.87
64368;BME280;50692;53.314;-6.300;2023-05-17T03:21:27;102576.75;;;12.17;69.78
64368;BME280;50692;53.314;-6.300;2023-05-17T03:24:13;102571.53;;;12.14;69.66
64368;BME280;50692;53.314;-6.300;2023-05-17T03:26:59;102544.50;;;12.03;69.74
64368;BME280;50692;53.314;-6.300;2023-05-17T03:29:46;102522.06;;;11.85;70.13
64368;BME280;50692;53.314;-6.300;2023-05-17T03:32:32;102563.75;;;12.09;70.09
64368;BME280;50692;53.314;-6.300;2023-05-17T03:35:18;102575.19;;;12.11;70.34
64368;BME280;50692;53.314;-6.300;2023-05-17T03:38:04;102571.78;;;12.06;70.26
64368;BME280;50692;53.314;-6.300;2023-05-17T03:40:53;102576.06;;;12.10;70.29
64368;BME280;50692;53.314;-6.300;2023-05-17T03:43:39;102555.19;;;11.99;70.34
64368;BME280;50692;53.314;-6.300;2023-05-17T03:46:24;102574.25;;;12.12;70.41
64368;BME280;50692;53.314;-6.300;2023-05-17T03:49:10;102571.75;;;12.08;70.38
64368;BME280;50692;53.314;-6.300;2023-05-17T03:51:58;102557.19;;;11.91;70.68
64368;BME280;50692;53.314;-6.300;2023-05-17T03:54:43;102569.59;;;11.91;70.89
64368;BME280;50692;53.314;-6.300;2023-05-17T03:57:29;102561.69;;;11.89;70.86
64368;BME280;50692;53.314;-6.300;2023-05-17T04:00:15;102551.22;;;11.83;71.08
64368;BME280;50692;53.314;-6.300;2023-05-17T04:03:07;102553.78;;;11.88;71.28
64368;BME280;50692;53.314;-6.300;2023-05-17T04:06:01;102551.97;;;11.88;71.59
64368;BME280;50692;53.314;-6.300;2023-05-17T04:08:51;102562.47;;;11.93;71.10
64368;BME280;50692;53.314;-6.300;2023-05-17T04:11:40;102560.19;;;11.79;71.21
64368;BME280;50692;53.314;-6.300;2023-05-17T04:14:26;102547.81;;;11.78;71.24
64368;BME280;50692;53.314;-6.300;2023-05-17T04:17:12;102572.31;;;11.88;71.45
64368;BME280;50692;53.314;-6.300;2023-05-17T04:19:58;102557.34;;;11.87;71.51
64368;BME280;50692;53.314;-6.300;2023-05-17T04:22:45;102536.38;;;11.77;71.43
64368;BME280;50692;53.314;-6.300;2023-05-17T04:25:32;102567.66;;;11.96;71.51
64368;BME280;50692;53.314;-6.300;2023-05-17T04:28:17;102571.19;;;11.96;71.63
64368;BME280;50692;53.314;-6.300;2023-05-17T04:31:07;102539.00;;;11.77;71.67
64368;BME280;50692;53.314;-6.300;2023-05-17T04:33:53;102531.13;;;11.76;71.39
64368;BME280;50692;53.314;-6.300;2023-05-17T04:36:39;102561.50;;;11.95;71.62
64368;BME280;50692;53.314;-6.300;2023-05-17T04:39:25;102552.06;;;11.85;71.78
64368;BME280;50692;53.314;-6.300;2023-05-17T04:42:11;102560.78;;;11.90;71.95
64368;BME280;50692;53.314;-6.300;2023-05-17T04:44:58;102553.91;;;11.82;72.04
64368;BME280;50692;53.314;-6.300;2023-05-17T04:47:43;102566.09;;;11.89;72.06
64368;BME280;50692;53.314;-6.300;2023-05-17T04:50:30;102574.19;;;11.84;72.33
64368;BME280;50692;53.314;-6.300;2023-05-17T04:53:17;102557.56;;;11.77;72.50
64368;BME280;50692;53.314;-6.300;2023-05-17T04:56:04;102572.38;;;11.86;72.56
64368;BME280;50692;53.314;-6.300;2023-05-17T04:58:51;102568.06;;;11.81;72.65
64368;BME280;50692;53.314;-6.300;2023-05-17T05:01:37;102556.75;;;11.75;72.72
64368;BME280;50692;53.314;-6.300;2023-05-17T05:04:23;102586.50;;;11.87;73.03
64368;BME280;50692;53.314;-6.300;2023-05-17T05:07:10;102565.56;;;11.76;72.97
64368;BME280;50692;53.314;-6.300;2023-05-17T05:09:56;102589.16;;;11.87;72.89
64368;BME280;50692;53.314;-6.300;2023-05-17T05:12:42;102572.50;;;11.80;72.78
64368;BME280;50692;53.314;-6.300;2023-05-17T05:15:27;102574.16;;;11.86;72.59
64368;BME280;50692;53.314;-6.300;2023-05-17T05:18:13;102595.88;;;11.98;72.97
64368;BME280;50692;53.314;-6.300;2023-05-17T05:20:59;102595.91;;;11.97;72.97
64368;BME280;50692;53.314;-6.300;2023-05-17T05:23:45;102595.91;;;11.97;73.22
64368;BME280;50692;53.314;-6.300;2023-05-17T05:26:31;102580.28;;;11.88;73.39
64368;BME280;50692;53.314;-6.300;2023-05-17T05:29:17;102600.34;;;11.96;73.15
64368;BME280;50692;53.314;-6.300;2023-05-17T05:32:05;102602.16;;;11.94;73.35
64368;BME280;50692;53.314;-6.300;2023-05-17T05:34:53;102604.56;;;12.04;73.45
64368;BME280;50692;53.314;-6.300;2023-05-17T05:37:48;102578.47;;;11.88;73.55
64368;BME280;50692;53.314;-6.300;2023-05-17T05:40:36;102569.00;;;11.80;73.42
64368;BME280;50692;53.314;-6.300;2023-05-17T05:43:23;102620.31;;;12.08;73.48
64368;BME280;50692;53.314;-6.300;2023-05-17T05:46:09;102620.72;;;11.94;73.18
64368;BME280;50692;53.314;-6.300;2023-05-17T05:48:55;102611.53;;;12.06;73.26
64368;BME280;50692;53.314;-6.300;2023-05-17T05:51:40;102631.50;;;12.19;73.20
64368;BME280;50692;53.314;-6.300;2023-05-17T05:54:26;102641.88;;;12.27;73.12
64368;BME280;50692;53.314;-6.300;2023-05-17T05:57:12;102636.38;;;12.33;72.87
64368;BME280;50692;53.314;-6.300;2023-05-17T05:59:58;102625.69;;;12.36;72.37
64368;BME280;50692;53.314;-6.300;2023-05-17T06:02:45;102645.59;;;12.49;72.22
64368;BME280;50692;53.314;-6.300;2023-05-17T06:05:31;102638.56;;;12.48;71.98
64368;BME280;50692;53.314;-6.300;2023-05-17T06:08:23;102643.72;;;12.53;72.00
64368;BME280;50692;53.314;-6.300;2023-05-17T06:11:09;102648.25;;;12.49;71.83
64368;BME280;50692;53.314;-6.300;2023-05-17T06:13:54;102653.22;;;12.62;71.65
64368;BME280;50692;53.314;-6.300;2023-05-17T06:16:40;102651.56;;;12.58;71.79
64368;BME280;50692;53.314;-6.300;2023-05-17T06:19:27;102646.25;;;12.58;71.50
64368;BME280;50692;53.314;-6.300;2023-05-17T06:22:14;102659.31;;;12.64;71.70
64368;BME280;50692;53.314;-6.300;2023-05-17T06:25:00;102665.28;;;12.72;71.38
64368;BME280;50692;53.314;-6.300;2023-05-17T06:27:46;102653.66;;;12.76;71.05
64368;BME280;50692;53.314;-6.300;2023-05-17T06:30:32;102669.25;;;12.87;71.17
64368;BME280;50692;53.314;-6.300;2023-05-17T06:33:18;102654.19;;;12.87;70.98
64368;BME280;50692;53.314;-6.300;2023-05-17T06:36:04;102659.75;;;13.06;70.71
64368;BME280;50692;53.314;-6.300;2023-05-17T06:38:51;102651.84;;;13.05;70.43
64368;BME280;50692;53.314;-6.300;2023-05-17T06:41:37;102633.09;;;13.09;70.15
64368;BME280;50692;53.314;-6.300;2023-05-17T06:44:24;102654.53;;;13.31;69.76
64368;BME280;50692;53.314;-6.300;2023-05-17T06:47:10;102652.47;;;13.39;69.50
64368;BME280;50692;53.314;-6.300;2023-05-17T06:49:57;102619.84;;;13.36;69.29
64368;BME280;50692;53.314;-6.300;2023-05-17T06:52:43;102647.34;;;13.60;69.08
64368;BME280;50692;53.314;-6.300;2023-05-17T06:55:29;102653.22;;;13.70;68.74
64368;BME280;50692;53.314;-6.300;2023-05-17T06:58:15;102646.66;;;13.80;68.54
64368;BME280;50692;53.314;-6.300;2023-05-17T07:01:01;102633.28;;;13.83;68.10
64368;BME280;50692;53.314;-6.300;2023-05-17T07:03:46;102648.59;;;14.00;67.71
64368;BME280;50692;53.314;-6.300;2023-05-17T07:06:32;102614.38;;;13.90;67.27
64368;BME280;50692;53.314;-6.300;2023-05-17T07:09:22;102658.09;;;14.30;66.64
64368;BME280;50692;53.314;-6.300;2023-05-17T07:12:07;102655.72;;;14.46;66.31
64368;BME280;50692;53.314;-6.300;2023-05-17T07:15:01;102661.50;;;14.57;65.66
64368;BME280;50692;53.314;-6.300;2023-05-17T07:17:48;102617.91;;;14.38;65.54
64368;BME280;50692;53.314;-6.300;2023-05-17T07:20:34;102634.94;;;14.79;65.05
64368;BME280;50692;53.314;-6.300;2023-05-17T07:23:20;102646.94;;;14.90;64.68
64368;BME280;50692;53.314;-6.300;2023-05-17T07:26:06;102625.50;;;14.93;64.45
64368;BME280;50692;53.314;-6.300;2023-05-17T07:28:53;102630.69;;;15.18;63.89
64368;BME280;50692;53.314;-6.300;2023-05-17T07:31:39;102645.97;;;15.34;63.31
64368;BME280;50692;53.314;-6.300;2023-05-17T07:34:25;102629.31;;;15.50;62.69
64368;BME280;50692;53.314;-6.300;2023-05-17T07:37:11;102639.28;;;15.67;62.39
64368;BME280;50692;53.314;-6.300;2023-05-17T07:39:56;102633.13;;;15.85;62.09
64368;BME280;50692;53.314;-6.300;2023-05-17T07:42:42;102616.31;;;15.83;61.52
64368;BME280;50692;53.314;-6.300;2023-05-17T07:45:28;102641.72;;;16.12;61.05
64368;BME280;50692;53.314;-6.300;2023-05-17T07:48:20;102632.31;;;16.22;60.96
64368;BME280;50692;53.314;-6.300;2023-05-17T07:51:06;102642.16;;;16.41;60.61
64368;BME280;50692;53.314;-6.300;2023-05-17T07:53:53;102595.97;;;16.39;59.99
64368;BME280;50692;53.314;-6.300;2023-05-17T07:56:39;102635.72;;;16.83;59.15
64368;BME280;50692;53.314;-6.300;2023-05-17T07:59:25;102637.56;;;16.99;58.75
64368;BME280;50692;53.314;-6.300;2023-05-17T08:02:11;102607.16;;;17.02;58.43
64368;BME280;50692;53.314;-6.300;2023-05-17T08:04:57;102629.66;;;17.33;58.14
64368;BME280;50692;53.314;-6.300;2023-05-17T08:07:43;102613.06;;;17.43;57.28
64368;BME280;50692;53.314;-6.300;2023-05-17T08:10:30;102624.38;;;17.66;56.71
64368;BME280;50692;53.314;-6.300;2023-05-17T08:13:17;102592.28;;;17.66;56.01
64368;BME280;50692;53.314;-6.300;2023-05-17T08:16:04;102617.50;;;17.95;55.73
64368;BME280;50692;53.314;-6.300;2023-05-17T08:18:53;102621.50;;;18.04;55.08
64368;BME280;50692;53.314;-6.300;2023-05-17T08:21:41;102618.31;;;18.13;55.13
64368;BME280;50692;53.314;-6.300;2023-05-17T08:24:27;102603.81;;;18.17;54.99
64368;BME280;50692;53.314;-6.300;2023-05-17T08:27:13;102614.47;;;18.34;54.69
64368;BME280;50692;53.314;-6.300;2023-05-17T08:30:00;102607.81;;;18.41;54.38
64368;BME280;50692;53.314;-6.300;2023-05-17T08:32:47;102606.69;;;18.45;54.42
64368;BME280;50692;53.314;-6.300;2023-05-17T08:35:36;102615.75;;;18.59;54.15
64368;BME280;50692;53.314;-6.300;2023-05-17T08:38:23;102568.84;;;18.36;54.27
64368;BME280;50692;53.314;-6.300;2023-05-17T08:41:09;102613.00;;;18.76;54.27
64368;BME280;50692;53.314;-6.300;2023-05-17T08:43:55;102602.72;;;18.84;53.88
64368;BME280;50692;53.314;-6.300;2023-05-17T08:46:45;102588.50;;;18.98;53.58
64368;BME280;50692;53.314;-6.300;2023-05-17T08:49:38;102590.78;;;19.20;53.12
64368;BME280;50692;53.314;-6.300;2023-05-17T08:52:29;102605.19;;;19.48;52.54
64368;BME280;50692;53.314;-6.300;2023-05-17T08:55:19;102589.72;;;19.53;51.32
64368;BME280;50692;53.314;-6.300;2023-05-17T08:58:05;102589.59;;;19.54;50.72
64368;BME280;50692;53.314;-6.300;2023-05-17T09:00:54;102600.38;;;19.69;50.75
64368;BME280;50692;53.314;-6.300;2023-05-17T09:03:41;102584.19;;;19.70;50.57
64368;BME280;50692;53.314;-6.300;2023-05-17T09:06:30;102603.66;;;19.88;49.81
64368;BME280;50692;53.314;-6.300;2023-05-17T09:09:19;102608.06;;;20.03;48.36
64368;BME280;50692;53.314;-6.300;2023-05-17T09:12:06;102602.00;;;20.14;47.61
64368;BME280;50692;53.314;-6.300;2023-05-17T09:14:52;102607.06;;;20.33;47.47
64368;BME280;50692;53.314;-6.300;2023-05-17T09:17:39;102571.09;;;20.35;47.45
64368;BME280;50692;53.314;-6.300;2023-05-17T09:20:27;102608.75;;;20.63;46.59
64368;BME280;50692;53.314;-6.300;2023-05-17T09:23:21;102587.47;;;20.59;45.87
64368;BME280;50692;53.314;-6.300;2023-05-17T09:26:06;102596.53;;;20.71;45.21
64368;BME280;50692;53.314;-6.300;2023-05-17T09:28:52;102596.69;;;20.82;44.64
64368;BME280;50692;53.314;-6.300;2023-05-17T09:31:39;102573.16;;;20.59;44.35
64368;BME280;50692;53.314;-6.300;2023-05-17T09:34:25;102586.31;;;20.64;43.65
64368;BME280;50692;53.314;-6.300;2023-05-17T09:37:17;102595.88;;;20.68;44.06
64368;BME280;50692;53.314;-6.300;2023-05-17T09:40:03;102602.69;;;20.59;44.66
64368;BME280;50692;53.314;-6.300;2023-05-17T09:42:51;102591.88;;;20.46;45.11
64368;BME280;50692;53.314;-6.300;2023-05-17T09:45:37;102608.31;;;20.56;45.27
64368;BME280;50692;53.314;-6.300;2023-05-17T09:48:25;102604.34;;;20.62;44.41
64368;BME280;50692;53.314;-6.300;2023-05-17T09:51:14;102597.28;;;20.73;43.87
64368;BME280;50692;53.314;-6.300;2023-05-17T09:54:01;102599.09;;;21.00;43.44
64368;BME280;50692;53.314;-6.300;2023-05-17T09:56:55;102596.03;;;21.19;42.59
64368;BME280;50692;53.314;-6.300;2023-05-17T09:59:44;102588.59;;;21.22;42.44
64368;BME280;50692;53.314;-6.300;2023-05-17T10:02:32;102589.31;;;21.39;42.54
64368;BME280;50692;53.314;-6.300;2023-05-17T10:05:21;102587.28;;;21.42;42.02
64368;BME280;50692;53.314;-6.300;2023-05-17T10:08:07;102585.13;;;21.60;42.26
64368;BME280;50692;53.314;-6.300;2023-05-17T10:10:55;102595.13;;;21.84;41.53
64368;BME280;50692;53.314;-6.300;2023-05-17T10:13:51;102591.22;;;22.00;41.24
64368;BME280;50692;53.314;-6.300;2023-05-17T10:16:39;102584.13;;;21.99;40.45
64368;BME280;50692;53.314;-6.300;2023-05-17T10:19:26;102582.72;;;21.81;40.87
64368;BME280;50692;53.314;-6.300;2023-05-17T10:22:14;102573.59;;;21.96;41.14
64368;BME280;50692;53.314;-6.300;2023-05-17T10:25:01;102574.81;;;22.29;40.52
64368;BME280;50692;53.314;-6.300;2023-05-17T10:27:50;102573.25;;;22.50;39.88
64368;BME280;50692;53.314;-6.300;2023-05-17T10:30:37;102567.69;;;22.65;39.40
64368;BME280;50692;53.314;-6.300;2023-05-17T10:33:25;102543.81;;;22.47;39.59
64368;BME280;50692;53.314;-6.300;2023-05-17T10:36:16;102564.34;;;22.61;39.83
64368;BME280;50692;53.314;-6.300;2023-05-17T10:39:05;102555.09;;;22.77;39.67
64368;BME280;50692;53.314;-6.300;2023-05-17T10:41:53;102535.31;;;22.89;38.82
64368;BME280;50692;53.314;-6.300;2023-05-17T10:44:41;102534.91;;;22.82;38.66
64368;BME280;50692;53.314;-6.300;2023-05-17T10:47:31;102549.19;;;22.95;38.33
64368;BME280;50692;53.314;-6.300;2023-05-17T10:50:26;102549.97;;;23.09;38.32
64368;BME280;50692;53.314;-6.300;2023-05-17T10:53:12;102542.09;;;22.94;37.69
64368;BME280;50692;53.314;-6.300;2023-05-17T10:55:58;102555.00;;;22.78;38.05
64368;BME280;50692;53.314;-6.300;2023-05-17T10:58:44;102543.59;;;22.74;38.40
64368;BME280;50692;53.314;-6.300;2023-05-17T11:02:07;102548.03;;;23.11;37.97
64368;BME280;50692;53.314;-6.300;2023-05-17T11:04:54;102548.28;;;23.19;37.76
64368;BME280;50692;53.314;-6.300;2023-05-17T11:07:40;102529.75;;;23.03;37.50
64368;BME280;50692;53.314;-6.300;2023-05-17T11:10:26;102552.31;;;23.13;37.47
64368;BME280;50692;53.314;-6.300;2023-05-17T11:13:25;102549.97;;;23.09;37.16
64368;BME280;50692;53.314;-6.300;2023-05-17T11:16:15;102543.16;;;22.92;37.34
64368;BME280;50692;53.314;-6.300;2023-05-17T11:19:14;102542.66;;;22.87;36.69
64368;BME280;50692;53.314;-6.300;2023-05-17T11:22:09;102520.44;;;23.07;36.39
64368;BME280;50692;53.314;-6.300;2023-05-17T11:24:56;102536.66;;;23.30;36.06
64368;BME280;50692;53.314;-6.300;2023-05-17T11:28:08;102543.28;;;23.26;36.07
64368;BME280;50692;53.314;-6.300;2023-05-17T11:30:59;102520.47;;;23.18;35.97
64368;BME280;50692;53.314;-6.300;2023-05-17T11:33:45;102527.34;;;23.45;35.22
64368;BME280;50692;53.314;-6.300;2023-05-17T11:36:48;102524.19;;;23.74;34.91
64368;BME280;50692;53.314;-6.300;2023-05-17T11:39:34;102540.28;;;23.75;34.34
64368;BME280;50692;53.314;-6.300;2023-05-17T11:42:23;102540.22;;;23.41;35.11
64368;BME280;50692;53.314;-6.300;2023-05-17T11:45:10;102532.13;;;23.30;35.35
64368;BME280;50692;53.314;-6.300;2023-05-17T11:47:58;102522.47;;;23.50;35.57
64368;BME280;50692;53.314;-6.300;2023-05-17T11:50:45;102529.09;;;23.91;34.84
64368;BME280;50692;53.314;-6.300;2023-05-17T11:53:31;102536.53;;;24.21;34.68
64368;BME280;50692;53.314;-6.300;2023-05-17T11:56:19;102535.91;;;24.17;34.27
64368;BME280;50692;53.314;-6.300;2023-05-17T11:59:09;102540.72;;;24.14;34.15
64368;BME280;50692;53.314;-6.300;2023-05-17T12:01:57;102533.16;;;23.97;34.44
64368;BME280;50692;53.314;-6.300;2023-05-17T12:04:44;102529.94;;;23.91;34.38
64368;BME280;50692;53.314;-6.300;2023-05-17T12:07:32;102532.50;;;24.15;34.65
64368;BME280;50692;53.314;-6.300;2023-05-17T12:10:19;102514.91;;;24.32;33.97
64368;BME280;50692;53.314;-6.300;2023-05-17T12:13:06;102512.84;;;24.68;33.71
64368;BME280;50692;53.314;-6.300;2023-05-17T12:16:02;102524.78;;;25.07;32.75
64368;BME280;50692;53.314;-6.300;2023-05-17T12:18:50;102520.00;;;25.11;31.53
64368;BME280;50692;53.314;-6.300;2023-05-17T12:21:36;102524.13;;;24.94;32.30
64368;BME280;50692;53.314;-6.300;2023-05-17T12:24:22;102487.59;;;24.79;32.38
64368;BME280;50692;53.314;-6.300;2023-05-17T12:27:08;102506.03;;;24.95;31.78
64368;BME280;50692;53.314;-6.300;2023-05-17T12:29:54;102498.97;;;25.15;31.39
64368;BME280;50692;53.314;-6.300;2023-05-17T12:32:41;102510.84;;;24.70;31.13
64368;BME280;50692;53.314;-6.300;2023-05-17T12:35:27;102504.34;;;24.29;31.54
64368;BME280;50692;53.314;-6.300;2023-05-17T12:38:13;102480.88;;;23.86;32.34
64368;BME280;50692;53.314;-6.300;2023-05-17T12:41:02;102504.41;;;23.96;32.67
64368;BME280;50692;53.314;-6.300;2023-05-17T12:43:49;102486.97;;;24.11;32.54
64368;BME280;50692;53.314;-6.300;2023-05-17T12:46:35;102498.28;;;24.37;31.50
64368;BME280;50692;53.314;-6.300;2023-05-17T12:49:21;102507.63;;;24.44;31.64
64368;BME280;50692;53.314;-6.300;2023-05-17T12:52:06;102473.22;;;24.35;31.90
64368;BME280;50692;53.314;-6.300;2023-05-17T12:54:57;102473.38;;;24.65;31.32
64368;BME280;50692;53.314;-6.300;2023-05-17T12:57:50;102497.22;;;24.72;30.91
64368;BME280;50692;53.314;-6.300;2023-05-17T13:00:36;102490.13;;;24.80;31.22
64368;BME280;50692;53.314;-6.300;2023-05-17T13:03:21;102484.28;;;24.75;30.98
64368;BME280;50692;53.314;-6.300;2023-05-17T13:06:09;102475.09;;;24.87;30.40
64368;BME280;50692;53.314;-6.300;2023-05-17T13:08:59;102468.06;;;24.75;31.12
64368;BME280;50692;53.314;-6.300;2023-05-17T13:12:10;102490.06;;;24.71;30.65
64368;BME280;50692;53.314;-6.300;2023-05-17T13:14:57;102484.16;;;24.45;31.44
64368;BME280;50692;53.314;-6.300;2023-05-17T13:17:46;102481.47;;;24.33;32.01
64368;BME280;50692;53.314;-6.300;2023-05-17T13:20:35;102459.38;;;23.85;32.49
64368;BME280;50692;53.314;-6.300;2023-05-17T13:23:21;102486.75;;;23.46;33.75
64368;BME280;50692;53.314;-6.300;2023-05-17T13:26:08;102482.31;;;23.34;34.59
64368;BME280;50692;53.314;-6.300;2023-05-17T13:28:56;102478.53;;;23.26;35.29
64368;BME280;50692;53.314;-6.300;2023-05-17T13:31:41;102465.50;;;23.31;35.65
64368;BME280;50692;53.314;-6.300;2023-05-17T13:34:36;102461.59;;;23.57;35.06
64368;BME280;50692;53.314;-6.300;2023-05-17T13:37:23;102344.22;;;23.40;34.15
64368;BME280;50692;53.314;-6.300;2023-05-17T13:40:09;102415.50;;;24.36;33.04
64368;BME280;50692;53.314;-6.300;2023-05-17T13:42:55;102461.13;;;24.82;32.59
64368;BME280;50692;53.314;-6.300;2023-05-17T13:45:43;102459.38;;;25.02;31.99
64368;BME280;50692;53.314;-6.300;2023-05-17T13:48:29;102464.22;;;24.99;32.36
64368;BME280;50692;53.314;-6.300;2023-05-17T13:51:15;102458.38;;;25.24;32.23
64368;BME280;50692;53.314;-6.300;2023-05-17T13:54:03;102458.81;;;25.60;32.12
64368;BME280;50692;53.314;-6.300;2023-05-17T13:56:50;102424.38;;;25.31;32.25
64368;BME280;50692;53.314;-6.300;2023-05-17T13:59:36;102434.78;;;25.76;31.62
64368;BME280;50692;53.314;-6.300;2023-05-17T14:02:22;102443.94;;;25.85;31.51
64368;BME280;50692;53.314;-6.300;2023-05-17T14:05:09;102441.81;;;25.89;30.91
64368;BME280;50692;53.314;-6.300;2023-05-17T14:07:56;102431.63;;;25.62;31.32
64368;BME280;50692;53.314;-6.300;2023-05-17T14:10:44;102420.31;;;25.56;31.46
64368;BME280;50692;53.314;-6.300;2023-05-17T14:13:30;102427.72;;;25.95;30.33
64368;BME280;50692;53.314;-6.300;2023-05-17T14:16:16;102428.72;;;26.32;30.21
64368;BME280;50692;53.314;-6.300;2023-05-17T14:19:01;102403.47;;;26.03;29.54
64368;BME280;50692;53.314;-6.300;2023-05-17T14:21:47;102417.22;;;25.61;30.64
64368;BME280;50692;53.314;-6.300;2023-05-17T14:24:34;102407.06;;;24.92;31.55
64368;BME280;50692;53.314;-6.300;2023-05-17T14:27:20;102426.16;;;24.91;32.62
64368;BME280;50692;53.314;-6.300;2023-05-17T14:30:06;102418.22;;;25.20;31.69
64368;BME280;50692;53.314;-6.300;2023-05-17T14:32:52;102413.38;;;25.54;31.33
64368;BME280;50692;53.314;-6.300;2023-05-17T14:35:38;102411.59;;;25.83;30.67
64368;BME280;50692;53.314;-6.300;2023-05-17T14:38:26;102418.03;;;25.82;30.56